Time;durP1;ratioP1;P1;durP2;ratioP2;P2;SDS_P1;SDS_P2;PMS_P1;PMS_P2;Temp;Humidity;BMP_temperature;BMP_pressure;BME280_temperature;BME280_humidity;BME280_pressure;Samples;Min_cycle;Max_cycle;Signal;HPM_P1;HPM_P2
2021/12/08 10:08:57;;;;;;;1.4;0.8;;;;;;;4.06;77.02832;921.626;;;;
2021/12/08 10:11:22;;;;;;;9.4;6.4;;;;;;;4.21;75.7832;921.6067;;;;
2021/12/08 10:13:53;;;;;;;11;7.1;;;;;;;4.22;75.54785;921.5839;;;;
2021/12/08 10:16:26;;;;;;;11.7;7.3;;;;;;;3.88;77.14355;921.493;;;;
2021/12/08 10:18:53;;;;;;;11.1;8.1;;;;;;;3.98;77.59766;921.4889;;;;
2021/12/08 10:21:22;;;;;;;9.8;7;;;;;;;4.09;77.7998;921.5475;;;;
2021/12/08 10:23:53;;;;;;;7.9;5.5;;;;;;;3.93;77.96094;921.4808;;;;
2021/12/08 10:26:25;;;;;;;10.7;5.8;;;;;;;3.75;79.07422;921.4642;;;;
2021/12/08 10:28:52;;;;;;;10.2;5;;;;;;;3.87;78.42188;921.4504;;;;
2021/12/08 10:31:17;;;;;;;4.5;2.9;;;;;;;3.7;78.09766;921.5701;;;;
2021/12/08 10:33:54;;;;;;;4.9;3.1;;;;;;;3.84;77.2793;921.5391;;;;
2021/12/08 10:36:19;;;;;;;4.9;2.9;;;;;;;4.05;77.35059;921.6566;;;;
2021/12/08 10:38:32;;;;;;;4.8;2.5;;;;;;;4.19;77.83984;921.6197;;;;
2021/12/08 10:41:02;;;;;;;3;2.4;;;;;;;4.37;77.24121;921.4075;;;;
2021/12/08 10:43:51;;;;;;;3.3;2.4;;;;;;;4.58;76.45801;921.3694;;;;
2021/12/08 10:46:18;;;;;;;4.9;2.7;;;;;;;4.76;75.375;921.3309;;;;
2021/12/08 10:48:43;;;;;;;3.7;2.7;;;;;;;4.72;74.26563;921.3442;;;;
2021/12/08 10:56:00;;;;;;;6.3;4.6;;;;;;;4.73;76.30566;920.9886;;;;
2021/12/08 10:58:25;;;;;;;7.6;4.8;;;;;;;4.7;77.60547;921.1501;;;;
2021/12/08 11:00:56;;;;;;;6.5;4.3;;;;;;;4.41;79.18555;921.0527;;;;
2021/12/08 11:03:21;;;;;;;4.3;3;;;;;;;4.32;79.29199;921.0724;;;;
2021/12/08 11:05:48;;;;;;;5.3;3.5;;;;;;;4.04;80.41016;921.1242;;;;
2021/12/08 11:08:13;;;;;;;5;2.9;;;;;;;4.35;79.66895;921.0167;;;;
2021/12/08 11:10:38;;;;;;;5.5;3.2;;;;;;;4.23;79.50098;920.9705;;;;
2021/12/08 11:13:03;;;;;;;7.5;3.2;;;;;;;4.47;79.15234;920.9607;;;;
2021/12/08 11:15:29;;;;;;;3.7;2.7;;;;;;;4.68;77.04883;920.8892;;;;
2021/12/08 11:17:54;;;;;;;4;2.9;;;;;;;4.63;77.25488;920.9285;;;;
2021/12/08 11:20:29;;;;;;;4.8;3;;;;;;;4.76;76.62598;920.8642;;;;
2021/12/08 11:22:49;;;;;;;4.9;3.7;;;;;;;4.87;76.52148;920.9105;;;;
2021/12/08 11:25:21;;;;;;;16.3;11.4;;;;;;;4.8;77.44336;920.8572;;;;
2021/12/08 11:27:42;;;;;;;9.8;7.7;;;;;;;4.64;77.90918;920.7299;;;;
2021/12/08 11:30:05;;;;;;;5.2;3.2;;;;;;;4.59;78.75684;920.6995;;;;
2021/12/08 11:32:33;;;;;;;4.9;3.5;;;;;;;4.57;79.1709;920.7601;;;;
2021/12/08 11:35:02;;;;;;;3.9;3;;;;;;;4.76;78.46191;920.7405;;;;
2021/12/08 11:37:32;;;;;;;6;4.2;;;;;;;4.7;78.65332;920.7939;;;;
2021/12/08 11:39:52;;;;;;;5.4;4.2;;;;;;;4.8;78.33398;920.8801;;;;
2021/12/08 11:42:16;;;;;;;6;4.1;;;;;;;4.86;78.19727;920.8538;;;;
2021/12/08 11:44:40;;;;;;;4.7;2.7;;;;;;;4.89;78.16992;920.7442;;;;
2021/12/08 11:47:05;;;;;;;3.4;2.7;;;;;;;4.97;77.06738;920.7947;;;;
2021/12/08 11:49:32;;;;;;;7.1;4.8;;;;;;;4.93;75.53906;920.8262;;;;
2021/12/08 11:51:57;;;;;;;4.7;3.4;;;;;;;4.89;72.7959;920.7363;;;;
2021/12/08 11:54:25;;;;;;;6.6;4.4;;;;;;;5.02;74.13477;920.7045;;;;
2021/12/08 11:56:50;;;;;;;7.6;4.5;;;;;;;5.11;72.3916;920.5736;;;;
2021/12/08 11:59:22;;;;;;;8.4;5.5;;;;;;;4.88;73.05273;920.8033;;;;
2021/12/08 12:01:50;;;;;;;13.8;7;;;;;;;4.91;74.58984;920.7182;;;;
2021/12/08 12:04:47;;;;;;;11.7;5.6;;;;;;;4.7;77.50488;920.942;;;;
2021/12/08 12:07:12;;;;;;;18.5;11.7;;;;;;;4.74;78.08594;920.9114;;;;
2021/12/08 12:09:37;;;;;;;33.1;15.8;;;;;;;4.96;77.67383;920.8484;;;;
2021/12/08 12:12:02;;;;;;;10.2;5.8;;;;;;;4.7;78.54102;921.1037;;;;
2021/12/08 12:14:28;;;;;;;7.8;5.2;;;;;;;4.83;78.27051;920.8647;;;;
2021/12/08 12:16:58;;;;;;;9.6;4.8;;;;;;;4.65;77.29395;920.9648;;;;
2021/12/08 12:19:28;;;;;;;9.5;4.9;;;;;;;4.32;78.81934;920.777;;;;
2021/12/08 12:21:53;;;;;;;12.5;6.2;;;;;;;4.43;79.07813;920.6548;;;;
2021/12/08 12:24:20;;;;;;;7.3;4.1;;;;;;;4.53;79.24121;920.5676;;;;
2021/12/08 12:26:45;;;;;;;3.7;2.2;;;;;;;4.73;79.09766;920.5078;;;;
2021/12/08 12:29:10;;;;;;;14.4;7;;;;;;;4.98;78.56934;920.4289;;;;
2021/12/08 12:31:37;;;;;;;15.4;7;;;;;;;5.07;78.34766;920.3181;;;;
2021/12/08 12:34:04;;;;;;;11.7;6.3;;;;;;;5.09;78.40918;920.2179;;;;
2021/12/08 12:36:29;;;;;;;44.1;21.7;;;;;;;4.97;78.98535;920.2775;;;;
2021/12/08 12:38:54;;;;;;;35.7;17.8;;;;;;;5.28;78.44531;920.2971;;;;
2021/12/08 12:41:19;;;;;;;10;6.1;;;;;;;5.39;77.32422;920.2805;;;;
2021/12/08 12:43:45;;;;;;;10.3;6;;;;;;;5.34;77.10059;920.17;;;;
2021/12/08 12:46:10;;;;;;;6.6;3.9;;;;;;;5.23;78.25488;919.9113;;;;
2021/12/08 12:48:37;;;;;;;3.5;1.9;;;;;;;4.95;78.84668;919.9501;;;;
2021/12/08 12:51:00;;;;;;;3.9;2.4;;;;;;;4.68;80.34863;920.0111;;;;
2021/12/08 12:53:26;;;;;;;5.3;3.5;;;;;;;4.86;79.93359;920.0905;;;;
2021/12/08 12:55:53;;;;;;;7.5;3.6;;;;;;;4.85;79.80859;920.0581;;;;
2021/12/08 12:58:18;;;;;;;13.8;7.1;;;;;;;4.37;81.58594;919.9886;;;;
2021/12/08 13:00:44;;;;;;;7.3;4.3;;;;;;;3.69;85.20898;919.9631;;;;
2021/12/08 13:03:09;;;;;;;9.2;4.4;;;;;;;3.8;85.2666;920.0655;;;;
2021/12/08 13:05:34;;;;;;;6.4;3.8;;;;;;;3.81;85.32422;920.0718;;;;
2021/12/08 13:08:02;;;;;;;7.8;4;;;;;;;3.55;87.47168;919.9486;;;;
2021/12/08 13:10:30;;;;;;;7.9;3.5;;;;;;;4.06;86.57617;919.6417;;;;
2021/12/08 13:12:52;;;;;;;6.3;3.6;;;;;;;4.34;84.10156;919.6836;;;;
2021/12/08 13:15:19;;;;;;;3.6;2.5;;;;;;;;;;;;;
2021/12/08 13:17:43;;;;;;;7.2;4.1;;;;;;;;;;;;;
2021/12/08 13:20:11;;;;;;;3.8;2.4;;;;;;;;;;;;;
2021/12/08 13:22:34;;;;;;;4;2.7;;;;;;;;;;;;;
2021/12/08 13:24:59;;;;;;;4.1;2.4;;;;;;;;;;;;;
2021/12/08 13:27:29;;;;;;;4.6;2.7;;;;;;;;;;;;;
2021/12/08 13:29:50;;;;;;;5.4;3.1;;;;;;;;;;;;;
2021/12/08 13:32:16;;;;;;;5.6;3.6;;;;;;;;;;;;;
2021/12/08 13:34:40;;;;;;;4.8;3.4;;;;;;;;;;;;;
2021/12/08 13:37:05;;;;;;;5.2;3.3;;;;;;;;;;;;;
2021/12/08 13:39:30;;;;;;;4.5;3.2;;;;;;;;;;;;;
2021/12/08 13:41:55;;;;;;;5.4;3.3;;;;;;;;;;;;;
2021/12/08 13:44:20;;;;;;;4.4;3;;;;;;;;;;;;;
2021/12/08 13:46:46;;;;;;;4.1;3.4;;;;;;;;;;;;;
2021/12/08 13:49:11;;;;;;;4;3.2;;;;;;;;;;;;;
2021/12/08 13:51:36;;;;;;;3.3;2.9;;;;;;;;;;;;;
2021/12/08 13:54:01;;;;;;;4.1;2.6;;;;;;;;;;;;;
2021/12/08 13:56:26;;;;;;;3.7;3.2;;;;;;;;;;;;;
2021/12/08 13:58:51;;;;;;;4.5;2.6;;;;;;;;;;;;;
2021/12/08 14:01:17;;;;;;;2.8;2.6;;;;;;;;;;;;;
2021/12/08 14:03:41;;;;;;;3.9;3.2;;;;;;;;;;;;;
2021/12/08 14:06:07;;;;;;;3.3;3;;;;;;;;;;;;;
2021/12/08 14:08:33;;;;;;;4.1;3.3;;;;;;;;;;;;;
2021/12/08 14:10:58;;;;;;;4.5;3.5;;;;;;;;;;;;;
2021/12/08 14:13:24;;;;;;;6.1;4.9;;;;;;;;;;;;;
2021/12/08 14:15:53;;;;;;;6.4;4.8;;;;;;;;;;;;;
2021/12/08 14:18:20;;;;;;;6.7;5.8;;;;;;;;;;;;;
2021/12/08 14:20:45;;;;;;;7.1;5.7;;;;;;;;;;;;;
2021/12/08 14:23:12;;;;;;;5.6;3.8;;;;;;;;;;;;;
2021/12/08 14:25:37;;;;;;;4.1;3.3;;;;;;;;;;;;;
2021/12/08 14:28:02;;;;;;;4.7;3.8;;;;;;;;;;;;;
2021/12/08 14:30:27;;;;;;;3.5;3.2;;;;;;;;;;;;;
2021/12/08 14:32:52;;;;;;;4.4;3.4;;;;;;;;;;;;;
2021/12/08 14:35:17;;;;;;;3.1;2.8;;;;;;;;;;;;;
2021/12/08 14:37:43;;;;;;;3.2;2.9;;;;;;;;;;;;;
2021/12/08 14:40:11;;;;;;;4.1;3.2;;;;;;;;;;;;;
2021/12/08 14:42:36;;;;;;;5.4;3.5;;;;;;;;;;;;;
2021/12/08 14:45:06;;;;;;;7.9;4.1;;;;;;;;;;;;;
2021/12/08 14:47:26;;;;;;;9.4;5.2;;;;;;;;;;;;;
2021/12/08 14:49:54;;;;;;;8.9;5;;;;;;;;;;;;;
2021/12/08 14:52:17;;;;;;;8.8;5;;;;;;;;;;;;;
2021/12/08 14:54:47;;;;;;;5.7;4.8;;;;;;;;;;;;;
2021/12/08 14:57:13;;;;;;;3.5;3.1;;;;;;;;;;;;;
2021/12/08 14:59:37;;;;;;;3.3;2.7;;;;;;;;;;;;;
2021/12/08 15:02:02;;;;;;;2.9;2.6;;;;;;;;;;;;;
2021/12/08 15:04:27;;;;;;;3.6;2.7;;;;;;;;;;;;;
2021/12/08 15:06:52;;;;;;;3.1;2.7;;;;;;;;;;;;;
2021/12/08 15:09:17;;;;;;;3.7;3.3;;;;;;;;;;;;;
2021/12/08 15:11:43;;;;;;;5;3.8;;;;;;;;;;;;;
2021/12/08 15:14:19;;;;;;;6.6;4.2;;;;;;;;;;;;;
2021/12/08 15:16:39;;;;;;;7;4.2;;;;;;;;;;;;;
2021/12/08 15:19:07;;;;;;;4.2;3.4;;;;;;;;;;;;;
2021/12/08 15:21:36;;;;;;;5.8;3.8;;;;;;;;;;;;;
2021/12/08 15:24:00;;;;;;;4.6;3.7;;;;;;;;;;;;;
2021/12/08 15:26:20;;;;;;;4.7;4;;;;;;;;;;;;;
2021/12/08 15:28:46;;;;;;;6;4.4;;;;;;;;;;;;;
2021/12/08 15:31:10;;;;;;;5.3;4.3;;;;;;;;;;;;;
2021/12/08 15:33:35;;;;;;;5.3;4.2;;;;;;;;;;;;;
2021/12/08 15:36:03;;;;;;;5.8;4.4;;;;;;;;;;;;;
2021/12/08 15:38:28;;;;;;;7.2;6.4;;;;;;;;;;;;;
2021/12/08 15:40:53;;;;;;;6.3;5.5;;;;;;;;;;;;;
2021/12/08 15:43:18;;;;;;;7;5.5;;;;;;;;;;;;;
2021/12/08 15:45:44;;;;;;;6.6;5;;;;;;;;;;;;;
2021/12/08 15:48:09;;;;;;;5.7;5;;;;;;;;;;;;;
2021/12/08 15:50:42;;;;;;;7.6;5.7;;;;;;;;;;;;;
2021/12/08 15:53:01;;;;;;;7.7;5.9;;;;;;;;;;;;;
2021/12/08 15:55:27;;;;;;;7.5;6.2;;;;;;;;;;;;;
2021/12/08 15:57:52;;;;;;;7.3;6.1;;;;;;;;;;;;;
2021/12/08 16:00:18;;;;;;;8.7;6.5;;;;;;;;;;;;;
2021/12/08 16:02:44;;;;;;;8;6.4;;;;;;;;;;;;;
2021/12/08 16:05:13;;;;;;;7.9;6.2;;;;;;;;;;;;;
2021/12/08 16:07:35;;;;;;;8.1;5.7;;;;;;;;;;;;;
2021/12/08 16:10:02;;;;;;;7;5.8;;;;;;;;;;;;;
2021/12/08 16:12:27;;;;;;;6.7;5.6;;;;;;;;;;;;;
2021/12/08 16:14:52;;;;;;;6.6;5.5;;;;;;;;;;;;;
2021/12/08 16:17:19;;;;;;;6;5.3;;;;;;;;;;;;;
2021/12/08 16:19:44;;;;;;;7.1;5.6;;;;;;;;;;;;;
2021/12/08 16:22:08;;;;;;;5.9;5.1;;;;;;;;;;;;;
2021/12/08 16:24:34;;;;;;;7.2;5.6;;;;;;;;;;;;;
2021/12/08 16:26:59;;;;;;;6.6;5.1;;;;;;;;;;;;;
2021/12/08 16:29:24;;;;;;;7.1;5.4;;;;;;;;;;;;;
2021/12/08 16:31:50;;;;;;;6.6;5.4;;;;;;;;;;;;;
2021/12/08 16:34:19;;;;;;;7.9;6.2;;;;;;;;;;;;;
2021/12/08 16:36:40;;;;;;;8.8;6.5;;;;;;;;;;;;;
2021/12/08 16:39:08;;;;;;;9.8;7.2;;;;;;;;;;;;;
2021/12/08 16:43:56;;;;;;;10.9;7.9;;;;;;;;;;;;;
2021/12/08 16:46:22;;;;;;;11.8;8.3;;;;;;;;;;;;;
2021/12/08 16:48:47;;;;;;;13.1;9.4;;;;;;;;;;;;;
2021/12/08 16:51:12;;;;;;;12.9;9.2;;;;;;;;;;;;;
2021/12/08 16:53:37;;;;;;;12.1;9.3;;;;;;;;;;;;;
2021/12/08 16:56:03;;;;;;;13.3;9.8;;;;;;;;;;;;;
2021/12/08 16:58:28;;;;;;;13.5;9.9;;;;;;;;;;;;;
2021/12/08 17:00:54;;;;;;;14.5;10.4;;;;;;;;;;;;;
2021/12/08 17:03:20;;;;;;;13.3;10.5;;;;;;;;;;;;;
2021/12/08 17:05:45;;;;;;;13.2;10;;;;;;;;;;;;;
2021/12/08 17:08:11;;;;;;;14.3;10.5;;;;;;;;;;;;;
2021/12/08 17:10:36;;;;;;;13.4;10.2;;;;;;;;;;;;;
2021/12/08 17:13:02;;;;;;;12.8;10.1;;;;;;;;;;;;;
2021/12/08 17:15:27;;;;;;;12.3;9.3;;;;;;;;;;;;;
2021/12/08 17:17:53;;;;;;;14;10.4;;;;;;;;;;;;;
2021/12/08 17:20:18;;;;;;;13.8;10.3;;;;;;;;;;;;;
2021/12/08 17:22:44;;;;;;;12.7;9.6;;;;;;;;;;;;;
2021/12/08 17:25:09;;;;;;;13.1;9.2;;;;;;;;;;;;;
2021/12/08 17:27:35;;;;;;;11.1;9.2;;;;;;;;;;;;;
2021/12/08 17:30:00;;;;;;;9;7.9;;;;;;;;;;;;;
2021/12/08 17:32:26;;;;;;;9.4;7.5;;;;;;;;;;;;;
2021/12/08 17:34:54;;;;;;;8.7;7.3;;;;;;;;;;;;;
2021/12/08 17:37:17;;;;;;;7.5;6.5;;;;;;;;;;;;;
2021/12/08 17:39:42;;;;;;;6.5;5.8;;;;;;;;;;;;;
2021/12/08 17:42:07;;;;;;;6.1;5.1;;;;;;;;;;;;;
2021/12/08 17:44:32;;;;;;;5.4;4.9;;;;;;;;;;;;;
2021/12/08 17:46:57;;;;;;;6.9;5.9;;;;;;;;;;;;;
2021/12/08 17:49:25;;;;;;;8.7;6.8;;;;;;;;;;;;;
2021/12/08 17:51:50;;;;;;;9;7;;;;;;;;;;;;;
2021/12/08 17:54:15;;;;;;;9.2;6.9;;;;;;;;;;;;;
2021/12/08 17:56:40;;;;;;;8.2;6.5;;;;;;;;;;;;;
2021/12/08 17:59:05;;;;;;;8.4;7.1;;;;;;;;;;;;;
2021/12/08 18:01:31;;;;;;;8.9;7;;;;;;;;;;;;;
2021/12/08 18:03:58;;;;;;;9.3;7.5;;;;;;;;;;;;;
2021/12/08 18:06:24;;;;;;;12.5;9.4;;;;;;;;;;;;;
2021/12/08 18:08:47;;;;;;;12.4;10.5;;;;;;;;;;;;;
2021/12/08 18:11:14;;;;;;;13.5;10.8;;;;;;;;;;;;;
2021/12/08 18:13:39;;;;;;;11.3;9.5;;;;;;;;;;;;;
2021/12/08 18:16:08;;;;;;;6.8;6.1;;;;;;;;;;;;;
2021/12/08 18:18:33;;;;;;;7;6;;;;;;;;;;;;;
2021/12/08 18:20:59;;;;;;;11.2;9;;;;;;;;;;;;;
2021/12/08 18:23:24;;;;;;;13.3;9.7;;;;;;;;;;;;;
2021/12/08 18:25:53;;;;;;;25.3;15.3;;;;;;;;;;;;;
2021/12/08 18:28:15;;;;;;;67.1;27;;;;;;;;;;;;;
2021/12/08 18:30:40;;;;;;;19.6;12.8;;;;;;;;;;;;;
2021/12/08 18:33:07;;;;;;;14.3;10.2;;;;;;;;;;;;;
2021/12/08 18:35:50;;;;;;;16.5;11.5;;;;;;;;;;;;;
2021/12/08 18:37:57;;;;;;;15.7;11.3;;;;;;;;;;;;;
2021/12/08 18:40:23;;;;;;;14;9.9;;;;;;;;;;;;;
2021/12/08 18:42:48;;;;;;;10.7;8.9;;;;;;;;;;;;;
2021/12/08 18:45:14;;;;;;;21.3;15.1;;;;;;;;;;;;;
2021/12/08 18:47:40;;;;;;;17.4;12.5;;;;;;;;;;;;;
2021/12/08 18:50:06;;;;;;;16.4;12.2;;;;;;;;;;;;;
2021/12/08 18:52:31;;;;;;;13.6;11;;;;;;;;;;;;;
2021/12/08 18:54:56;;;;;;;13.8;10.4;;;;;;;;;;;;;
2021/12/08 18:57:21;;;;;;;10.5;8.4;;;;;;;;;;;;;
2021/12/08 18:59:47;;;;;;;10.1;8;;;;;;;;;;;;;
2021/12/08 19:02:12;;;;;;;10.3;8.1;;;;;;;;;;;;;
2021/12/08 19:04:39;;;;;;;9.6;7.3;;;;;;;;;;;;;
2021/12/08 19:07:05;;;;;;;10.1;7.7;;;;;;;;;;;;;
2021/12/08 19:09:29;;;;;;;9.8;7.7;;;;;;;;;;;;;
2021/12/08 19:11:55;;;;;;;10.7;7.5;;;;;;;;;;;;;
2021/12/08 19:14:21;;;;;;;12;8.7;;;;;;;;;;;;;
2021/12/08 19:16:46;;;;;;;10.2;7.9;;;;;;;;;;;;;
2021/12/08 19:19:12;;;;;;;10.6;8.1;;;;;;;;;;;;;
2021/12/08 19:21:40;;;;;;;12.6;9.1;;;;;;;;;;;;;
2021/12/08 19:24:02;;;;;;;13.1;9.3;;;;;;;;;;;;;
2021/12/08 19:26:27;;;;;;;11.6;9.1;;;;;;;;;;;;;
2021/12/08 19:28:52;;;;;;;11.5;9.4;;;;;;;;;;;;;
2021/12/08 19:31:19;;;;;;;11.3;9;;;;;;;;;;;;;
2021/12/08 19:33:44;;;;;;;8.5;6.7;;;;;;;;;;;;;
2021/12/08 19:36:14;;;;;;;12.2;9.3;;;;;;;;;;;;;
2021/12/08 19:38:39;;;;;;;14.9;10.7;;;;;;;;;;;;;
2021/12/08 19:41:05;;;;;;;13.6;10.5;;;;;;;;;;;;;
2021/12/08 19:43:32;;;;;;;14.6;11.2;;;;;;;;;;;;;
2021/12/08 19:46:01;;;;;;;14.8;10.3;;;;;;;;;;;;;
2021/12/08 19:48:21;;;;;;;13.1;10.3;;;;;;;;;;;;;
2021/12/08 19:50:46;;;;;;;13.3;9.2;;;;;;;;;;;;;
2021/12/08 19:53:11;;;;;;;12.7;9.8;;;;;;;;;;;;;
2021/12/08 19:55:37;;;;;;;11.9;9.7;;;;;;;;;;;;;
2021/12/08 19:58:06;;;;;;;13;9.7;;;;;;;;;;;;;
2021/12/08 20:00:32;;;;;;;11.1;8.5;;;;;;;;;;;;;
2021/12/08 20:02:57;;;;;;;10;8.1;;;;;;;;;;;;;
2021/12/08 20:05:27;;;;;;;9.8;8.1;;;;;;;;;;;;;
2021/12/08 20:07:49;;;;;;;10.4;8.1;;;;;;;;;;;;;
2021/12/08 20:10:15;;;;;;;9.6;7.7;;;;;;;;;;;;;
2021/12/08 20:12:40;;;;;;;10.1;8.3;;;;;;;;;;;;;
2021/12/08 20:15:08;;;;;;;10.9;9;;;;;;;;;;;;;
2021/12/08 20:17:33;;;;;;;12.1;8.8;;;;;;;;;;;;;
2021/12/08 20:19:58;;;;;;;11.7;8.7;;;;;;;;;;;;;
2021/12/08 20:22:23;;;;;;;12.6;9.5;;;;;;;;;;;;;
2021/12/08 20:24:50;;;;;;;11.1;8.2;;;;;;;;;;;;;
2021/12/08 20:27:14;;;;;;;10.3;8.5;;;;;;;;;;;;;
2021/12/08 20:29:41;;;;;;;9.6;7.7;;;;;;;;;;;;;
2021/12/08 20:32:07;;;;;;;11.1;8.6;;;;;;;;;;;;;
2021/12/08 20:34:32;;;;;;;9.9;8.2;;;;;;;;;;;;;
2021/12/08 20:36:57;;;;;;;10.2;7.7;;;;;;;;;;;;;
2021/12/08 20:39:22;;;;;;;11.7;8.6;;;;;;;;;;;;;
2021/12/08 20:41:47;;;;;;;11.1;8.8;;;;;;;;;;;;;
2021/12/08 20:44:14;;;;;;;14.9;11.1;;;;;;;;;;;;;
2021/12/08 20:46:41;;;;;;;15.1;11.4;;;;;;;;;;;;;
2021/12/08 20:49:06;;;;;;;15.4;10.9;;;;;;;;;;;;;
2021/12/08 20:51:31;;;;;;;16.8;12.2;;;;;;;;;;;;;
2021/12/08 20:53:56;;;;;;;17.5;12.9;;;;;;;;;;;;;
2021/12/08 20:56:21;;;;;;;18.1;13.2;;;;;;;;;;;;;
2021/12/08 20:58:53;;;;;;;16.9;12.3;;;;;;;;;;;;;
2021/12/08 21:01:13;;;;;;;18.1;12.6;;;;;;;;;;;;;
2021/12/08 21:03:38;;;;;;;17.6;12.3;;;;;;;;;;;;;
2021/12/08 21:06:03;;;;;;;16.2;12.3;;;;;;;;;;;;;
2021/12/08 21:08:29;;;;;;;18.2;13.4;;;;;;;;;;;;;
2021/12/08 21:10:54;;;;;;;18.3;13.1;;;;;;;;;;;;;
2021/12/08 21:13:21;;;;;;;16.8;12;;;;;;;;;;;;;
2021/12/08 21:15:46;;;;;;;18.5;12.5;;;;;;;;;;;;;
2021/12/08 21:18:13;;;;;;;18.1;12.6;;;;;;;;;;;;;
2021/12/08 21:20:38;;;;;;;20.1;13.4;;;;;;;;;;;;;
2021/12/08 21:23:04;;;;;;;21.5;14;;;;;;;;;;;;;
2021/12/08 21:25:29;;;;;;;28.3;18.1;;;;;;;;;;;;;
2021/12/08 21:27:55;;;;;;;28.2;18.1;;;;;;;;;;;;;
2021/12/08 21:30:22;;;;;;;28.5;18;;;;;;;;;;;;;
2021/12/08 21:32:47;;;;;;;20.6;15.4;;;;;;;;;;;;;
2021/12/08 21:35:22;;;;;;;24;16.3;;;;;;;;;;;;;
2021/12/08 21:37:37;;;;;;;28.4;16.6;;;;;;;;;;;;;
2021/12/08 21:40:02;;;;;;;35.1;20.5;;;;;;;;;;;;;
2021/12/08 21:42:27;;;;;;;30.1;17.9;;;;;;;;;;;;;
2021/12/08 21:44:52;;;;;;;25.6;16.4;;;;;;;;;;;;;
2021/12/08 21:47:18;;;;;;;22.4;15.3;;;;;;;;;;;;;
2021/12/08 21:49:43;;;;;;;17.2;12.3;;;;;;;;;;;;;
2021/12/08 21:52:09;;;;;;;15.1;10.7;;;;;;;;;;;;;
2021/12/08 21:54:35;;;;;;;18.9;13;;;;;;;;;;;;;
2021/12/08 21:57:01;;;;;;;17.1;12.2;;;;;;;;;;;;;
2021/12/08 21:59:26;;;;;;;15.8;11.7;;;;;;;;;;;;;
2021/12/08 22:01:53;;;;;;;19.5;13.3;;;;;;;;;;;;;
2021/12/08 22:04:19;;;;;;;25.5;15.2;;;;;;;;;;;;;
2021/12/08 22:06:44;;;;;;;16.9;11.9;;;;;;;;;;;;;
2021/12/08 22:09:09;;;;;;;15.1;10.6;;;;;;;;;;;;;
2021/12/08 22:11:34;;;;;;;20.7;14.2;;;;;;;;;;;;;
2021/12/08 22:13:59;;;;;;;19.5;13.6;;;;;;;;;;;;;
2021/12/08 22:16:27;;;;;;;20.3;13.2;;;;;;;;;;;;;
2021/12/08 22:18:52;;;;;;;19.9;13;;;;;;;;;;;;;
2021/12/08 22:21:17;;;;;;;19.5;13.7;;;;;;;;;;;;;
2021/12/08 22:23:42;;;;;;;20.6;13.5;;;;;;;;;;;;;
2021/12/08 22:26:08;;;;;;;21.7;14.3;;;;;;;;;;;;;
2021/12/08 22:28:33;;;;;;;22.4;14.6;;;;;;;;;;;;;
2021/12/08 22:31:00;;;;;;;21.5;14.1;;;;;;;;;;;;;
2021/12/08 22:33:27;;;;;;;24.7;16;;;;;;;;;;;;;
2021/12/08 22:35:53;;;;;;;22.9;14.5;;;;;;;;;;;;;
2021/12/08 22:38:18;;;;;;;19.8;13.9;;;;;;;;;;;;;
2021/12/08 22:40:43;;;;;;;19.4;13.5;;;;;;;;;;;;;
2021/12/08 22:43:08;;;;;;;20.1;13.7;;;;;;;;;;;;;
2021/12/08 22:45:35;;;;;;;19.1;13.9;;;;;;;;;;;;;
2021/12/08 22:47:59;;;;;;;18.1;12.5;;;;;;;;;;;;;
2021/12/08 22:50:26;;;;;;;17.9;12.9;;;;;;;;;;;;;
2021/12/08 22:52:51;;;;;;;18.2;13.3;;;;;;;;;;;;;
2021/12/08 22:55:16;;;;;;;17.1;12.1;;;;;;;;;;;;;
2021/12/08 22:57:41;;;;;;;20.9;13.1;;;;;;;;;;;;;
2021/12/08 23:00:14;;;;;;;18.8;13.3;;;;;;;;;;;;;
2021/12/08 23:02:42;;;;;;;21.3;13.6;;;;;;;;;;;;;
2021/12/08 23:05:07;;;;;;;17.4;12.7;;;;;;;;;;;;;
2021/12/08 23:07:34;;;;;;;19.3;13.6;;;;;;;;;;;;;
2021/12/08 23:09:58;;;;;;;17.9;11.4;;;;;;;;;;;;;
2021/12/08 23:12:25;;;;;;;18.2;12.5;;;;;;;;;;;;;
2021/12/08 23:14:50;;;;;;;17.7;12.1;;;;;;;;;;;;;
2021/12/08 23:17:15;;;;;;;16.3;12;;;;;;;;;;;;;
2021/12/08 23:19:40;;;;;;;19.5;13.1;;;;;;;;;;;;;
2021/12/08 23:22:06;;;;;;;20.6;12.9;;;;;;;;;;;;;
2021/12/08 23:24:31;;;;;;;17.4;12.2;;;;;;;;;;;;;
2021/12/08 23:26:59;;;;;;;16.9;12.1;;;;;;;;;;;;;
2021/12/08 23:29:23;;;;;;;16.8;12.2;;;;;;;;;;;;;
2021/12/08 23:31:51;;;;;;;18.1;11.7;;;;;;;;;;;;;
2021/12/08 23:34:16;;;;;;;19.3;12.4;;;;;;;;;;;;;
2021/12/08 23:36:48;;;;;;;17.6;12;;;;;;;;;;;;;
2021/12/08 23:39:05;;;;;;;17.7;12.6;;;;;;;;;;;;;
2021/12/08 23:41:29;;;;;;;16.7;11.7;;;;;;;;;;;;;
2021/12/08 23:43:55;;;;;;;14.5;10.9;;;;;;;;;;;;;
2021/12/08 23:46:20;;;;;;;16.6;12.1;;;;;;;;;;;;;
2021/12/08 23:48:46;;;;;;;17.6;12.2;;;;;;;;;;;;;
2021/12/08 23:51:11;;;;;;;17.2;11.9;;;;;;;;;;;;;
2021/12/08 23:53:38;;;;;;;15.2;11.1;;;;;;;;;;;;;
2021/12/08 23:56:03;;;;;;;15.1;10.8;;;;;;;;;;;;;
2021/12/08 23:58:35;;;;;;;13.2;9.8;;;;;;;;;;;;;
